createdAt,value
2022-10-29T00:00:33.357Z,6.30
2022-10-29T00:05:34.995Z,5.82
2022-10-29T00:10:36.444Z,5.95
2022-10-29T00:15:40.633Z,6.43
2022-10-29T00:20:42.111Z,6.07
2022-10-29T00:25:43.582Z,5.75
2022-10-29T00:30:45.050Z,6.28
2022-10-29T00:36:07.017Z,7.35
2022-10-29T00:41:13.115Z,6.55
2022-10-29T00:46:17.855Z,6.13
2022-10-29T00:51:20.851Z,7.93
2022-10-29T00:56:25.432Z,6.68
2022-10-29T01:01:27.386Z,7.70
2022-10-29T01:06:30.871Z,7.72
2022-10-29T01:12:09.175Z,7.85
2022-10-29T01:22:39.036Z,7.65
2022-10-29T01:27:43.484Z,8.43
2022-10-29T01:33:06.203Z,8.38
2022-10-29T01:38:19.477Z,8.02
2022-10-29T01:43:54.277Z,8.98
2022-10-29T01:49:02.421Z,9.68
2022-10-29T01:54:09.196Z,12.73
2022-10-29T01:59:23.011Z,11.93
2022-10-29T02:04:55.095Z,11.77
2022-10-29T02:10:04.222Z,12.70
2022-10-29T02:15:25.907Z,11.05
2022-10-29T02:20:27.496Z,11.57
2022-10-29T02:25:29.056Z,10.57
2022-10-29T02:30:30.570Z,12.70
2022-10-29T02:35:32.060Z,13.32
2022-10-29T02:40:33.559Z,15.35
2022-10-29T02:45:35.014Z,18.67
2022-10-29T02:50:36.457Z,20.88
2022-10-29T02:55:38.312Z,20.25
2022-10-29T03:00:39.771Z,23.40
2022-10-29T03:05:45.108Z,21.67
2022-10-29T03:10:48.033Z,22.87
2022-10-29T03:15:49.535Z,25.05
2022-10-29T03:20:51.154Z,26.08
2022-10-29T03:25:55.826Z,25.10
2022-10-29T03:30:58.438Z,27.20
2022-10-29T03:36:01.271Z,30.70
2022-10-29T03:41:08.413Z,25.70
2022-10-29T03:46:10.003Z,28.48
2022-10-29T03:51:11.507Z,27.30
2022-10-29T03:56:13.011Z,35.50
2022-10-29T04:01:14.563Z,25.83
2022-10-29T04:06:16.119Z,27.35
2022-10-29T04:11:17.595Z,26.20
2022-10-29T04:16:19.087Z,27.75
2022-10-29T04:32:07.244Z,27.83
2022-10-29T04:37:08.720Z,27.73
2022-10-29T04:42:10.180Z,25.13
2022-10-29T04:47:11.677Z,23.23
2022-10-29T04:52:13.147Z,23.30
2022-10-29T04:57:14.627Z,21.15
2022-10-29T05:02:16.137Z,19.63
2022-10-29T05:07:17.596Z,18.38
2022-10-29T05:12:19.059Z,19.67
2022-10-29T05:17:20.498Z,17.48
2022-10-29T05:22:21.947Z,16.90
2022-10-29T05:27:23.440Z,15.70
2022-10-29T05:32:24.987Z,15.32
2022-10-29T05:37:27.837Z,15.48
2022-10-29T05:42:29.281Z,15.05
2022-10-29T05:47:30.747Z,15.00
2022-10-29T05:52:32.221Z,19.50
2022-10-29T05:57:33.723Z,21.73
2022-10-29T06:02:35.307Z,24.17
2022-10-29T06:07:36.815Z,22.45
2022-10-29T06:12:38.314Z,22.02
2022-10-29T06:17:44.014Z,22.33
2022-10-29T06:22:45.514Z,23.27
2022-10-29T06:27:46.960Z,23.25
2022-10-29T06:32:48.432Z,22.10
2022-10-29T06:37:50.043Z,23.33
2022-10-29T06:43:01.750Z,23.58
2022-10-29T06:48:05.119Z,22.20
2022-10-29T06:53:09.856Z,22.02
2022-10-29T06:58:14.186Z,21.60
2022-10-29T07:03:17.144Z,22.20
2022-10-29T07:08:18.588Z,20.25
2022-10-29T07:13:20.076Z,22.73
2022-10-29T07:18:21.595Z,24.50
2022-10-29T07:23:23.083Z,27.08
2022-10-29T07:28:25.561Z,26.02
2022-10-29T07:33:30.939Z,26.52
2022-10-29T07:38:32.426Z,26.88
2022-10-29T07:43:33.872Z,26.02
2022-10-29T07:48:35.320Z,24.05
2022-10-29T07:53:36.787Z,25.65
2022-10-29T07:58:38.248Z,25.25
2022-10-29T08:03:39.788Z,25.85
2022-10-29T08:08:41.275Z,22.52
2022-10-29T08:13:42.750Z,23.80
2022-10-29T08:18:46.214Z,25.00
2022-10-29T08:23:48.079Z,27.48
2022-10-29T08:28:49.646Z,22.85
2022-10-29T08:33:51.163Z,22.17
2022-10-29T08:38:52.610Z,23.88
2022-10-29T08:43:56.973Z,21.60
2022-10-29T08:49:03.227Z,22.52
2022-10-29T08:59:32.493Z,22.00
2022-10-29T09:04:35.925Z,23.20
2022-10-29T09:09:51.544Z,22.48
2022-10-29T09:15:30.383Z,23.33
2022-10-29T09:20:57.274Z,21.67
2022-10-29T09:26:03.957Z,22.08
2022-10-29T09:31:40.676Z,22.73
2022-10-29T09:36:45.366Z,22.02
2022-10-29T09:41:48.973Z,20.33
2022-10-29T09:47:18.964Z,18.92
2022-10-29T09:52:26.386Z,16.60
2022-10-29T09:57:30.527Z,16.25
2022-10-29T10:02:42.391Z,14.82
2022-10-29T10:08:06.372Z,14.32
2022-10-29T10:13:17.130Z,13.85
2022-10-29T10:18:21.597Z,12.60
2022-10-29T10:23:30.681Z,11.20
2022-10-29T10:28:35.749Z,10.10
2022-10-29T10:33:48.133Z,10.93
2022-10-29T10:38:52.231Z,10.85
2022-10-29T10:43:58.924Z,11.20
2022-10-29T10:49:06.878Z,10.90
2022-10-29T10:54:37.285Z,11.02
2022-10-29T10:59:49.164Z,11.48
2022-10-29T11:05:03.538Z,10.63
2022-10-29T11:10:12.204Z,11.80
2022-10-29T11:15:30.709Z,11.43
2022-10-29T11:20:35.736Z,11.60
2022-10-29T11:25:43.121Z,10.75
2022-10-29T11:30:51.958Z,10.93
2022-10-29T11:36:16.413Z,11.95
2022-10-29T11:41:33.495Z,11.55
2022-10-29T11:46:51.337Z,11.95
2022-10-29T11:52:04.614Z,10.70
2022-10-29T11:57:16.780Z,11.45
2022-10-29T12:02:45.944Z,11.23
2022-10-29T12:07:50.107Z,13.30
2022-10-29T12:13:02.126Z,11.52
2022-10-29T12:18:19.653Z,11.75
2022-10-29T12:23:43.005Z,12.27
2022-10-29T12:29:00.349Z,11.95
2022-10-29T12:34:08.319Z,16.35
2022-10-29T12:39:26.804Z,11.85
2022-10-29T12:44:45.179Z,12.48
2022-10-29T12:49:52.871Z,11.15
2022-10-29T12:54:56.230Z,12.05
2022-10-29T12:59:58.668Z,10.32
2022-10-29T13:05:06.112Z,9.90
2022-10-29T13:10:27.059Z,9.93
2022-10-29T13:15:28.502Z,10.27
2022-10-29T13:20:47.423Z,9.38
2022-10-29T13:25:55.963Z,8.85
2022-10-29T13:31:06.070Z,8.40
2022-10-29T13:36:27.725Z,8.95
2022-10-29T13:41:44.367Z,8.57
2022-10-29T13:47:19.000Z,7.93
2022-10-29T13:52:22.469Z,7.82
2022-10-29T13:57:26.268Z,7.88
2022-10-29T14:02:34.409Z,8.27
2022-10-29T14:07:47.191Z,9.30
2022-10-29T14:12:51.911Z,8.00
2022-10-29T14:17:53.411Z,8.50
2022-10-29T14:22:55.420Z,8.15
2022-10-29T14:28:17.422Z,9.00
2022-10-29T14:33:23.500Z,10.20
2022-10-29T14:38:34.293Z,8.82
2022-10-29T14:43:36.784Z,9.85
2022-10-29T14:48:45.201Z,10.38
2022-10-29T14:53:57.490Z,10.43
2022-10-29T14:59:00.607Z,9.40
2022-10-29T15:04:02.157Z,9.32
2022-10-29T15:09:04.139Z,10.02
2022-10-29T15:14:25.442Z,9.98
2022-10-29T15:19:27.522Z,9.40
2022-10-29T15:24:29.151Z,10.93
2022-10-29T15:29:41.997Z,11.52
2022-10-29T15:34:51.291Z,11.23
2022-10-29T15:39:56.524Z,9.73
2022-10-29T15:45:07.346Z,10.10
2022-10-29T15:50:12.091Z,9.90
2022-10-29T15:55:13.509Z,9.90
2022-10-29T16:00:15.215Z,9.75
2022-10-29T16:05:17.999Z,10.43
2022-10-29T16:10:21.363Z,10.43
2022-10-29T16:15:22.971Z,10.23
2022-10-29T16:20:24.484Z,9.15
2022-10-29T16:25:27.586Z,9.85
2022-10-29T16:30:29.392Z,9.77
2022-10-29T16:35:31.197Z,10.05
2022-10-29T16:40:32.702Z,10.23
2022-10-29T16:45:34.209Z,10.70
2022-10-29T16:50:35.956Z,10.00
2022-10-29T16:55:39.182Z,9.98
2022-10-29T17:00:40.747Z,10.52
2022-10-29T17:05:44.620Z,9.45
2022-10-29T17:10:46.082Z,10.95
2022-10-29T17:15:47.555Z,9.35
2022-10-29T17:20:59.897Z,9.55
2022-10-29T17:26:01.684Z,8.77
2022-10-29T17:31:07.209Z,8.88
2022-10-29T17:36:13.735Z,8.70
2022-10-29T17:41:15.196Z,8.87
2022-10-29T17:46:18.062Z,8.63
2022-10-29T17:51:19.552Z,9.40
2022-10-29T17:56:21.105Z,8.02
2022-10-29T18:01:22.942Z,9.88
2022-10-29T18:06:27.689Z,8.95
2022-10-29T18:11:29.559Z,9.35
2022-10-29T18:16:31.184Z,9.63
2022-10-29T18:21:32.762Z,9.10
2022-10-29T18:26:35.868Z,9.32
2022-10-29T18:31:37.861Z,9.88
2022-10-29T18:36:40.632Z,10.07
2022-10-29T18:41:42.098Z,9.82
2022-10-29T18:46:43.571Z,8.93
2022-10-29T18:51:45.218Z,10.50
2022-10-29T18:56:46.700Z,11.00
2022-10-29T19:01:48.341Z,9.25
2022-10-29T19:06:49.927Z,9.65
2022-10-29T19:11:55.277Z,10.60
2022-10-29T19:16:59.913Z,10.38
2022-10-29T19:22:01.418Z,11.10
2022-10-29T19:27:02.928Z,10.93
2022-10-29T19:32:04.573Z,11.38
2022-10-29T19:37:06.041Z,19.00
2022-10-29T19:42:07.558Z,14.32
2022-10-29T19:47:09.102Z,14.95
2022-10-29T19:52:10.579Z,11.30
2022-10-29T19:57:12.060Z,11.50
2022-10-29T20:02:13.984Z,11.70
2022-10-29T20:07:15.551Z,12.38
2022-10-29T20:12:17.013Z,12.10
2022-10-29T20:17:18.475Z,12.35
2022-10-29T20:22:20.023Z,12.20
2022-10-29T20:27:21.482Z,13.10
2022-10-29T20:32:23.134Z,13.32
2022-10-29T20:37:25.168Z,11.93
2022-10-29T20:42:26.656Z,11.68
2022-10-29T20:47:28.132Z,13.25
2022-10-29T20:52:30.392Z,13.27
2022-10-29T20:57:31.874Z,11.50
2022-10-29T21:02:33.426Z,11.20
2022-10-29T21:07:34.928Z,13.05
2022-10-29T21:12:36.404Z,11.73
2022-10-29T21:17:38.170Z,11.35
2022-10-29T21:22:39.646Z,10.93
2022-10-29T21:27:41.298Z,10.50
2022-10-29T21:32:42.785Z,9.98
2022-10-29T21:37:44.768Z,9.80
2022-10-29T21:42:46.319Z,10.98
2022-10-29T21:47:50.871Z,10.00
2022-10-29T21:52:52.332Z,11.02
2022-10-29T21:57:54.043Z,10.02
2022-10-29T22:03:04.193Z,10.15
2022-10-29T22:08:06.239Z,10.30
2022-10-29T22:13:10.392Z,10.18
2022-10-29T22:18:15.165Z,10.70
2022-10-29T22:28:23.076Z,10.00
2022-10-29T22:33:24.570Z,9.60
2022-10-29T22:38:26.105Z,9.75
2022-10-29T22:43:27.579Z,10.02
2022-10-29T22:48:29.104Z,8.75
2022-10-29T22:53:30.777Z,9.00
2022-10-29T22:58:32.593Z,9.02
2022-10-29T23:03:35.030Z,8.45
2022-10-29T23:08:36.519Z,8.73
2022-10-29T23:13:37.995Z,9.15
2022-10-29T23:18:39.462Z,8.40
2022-10-29T23:23:40.985Z,8.65
2022-10-29T23:28:43.029Z,9.35
2022-10-29T23:33:46.288Z,8.88
2022-10-29T23:38:47.783Z,8.75
2022-10-29T23:43:49.265Z,8.70
2022-10-29T23:48:50.754Z,8.90
2022-10-29T23:53:54.905Z,8.57
2022-10-29T23:58:59.009Z,9.13
